Hyundai No.107 — A8CT4 — position and weather

sailwx.info

Track history (hours):
 
Tides and Currents Weather Stations Pressure Air Temp Water Temp Dewpoint Dewpoint Depression Visibility Wind Speed Wind Dir Waves Ship Positions

Hyundai No.107

Last reported at 2014-Oct-27 13:31 UTC. Time now 2014-Oct-30 22:52 UTC.
Position N 35°12' E 139°46'.

Length 184 m; draft 7.5 m.

Type: Cargo ship. MMSI: 636011980.

Date/timePositionNaut miles runAvg speedWind from/ knotsBaromVisibWave heightAir tempDewpointWater temp
2014-Oct-27 13:31N 35°12' E 139°46'1212.1
2014-Oct-27 12:34N 35°23' E 139°42'7 6.8
2014-Oct-27 11:30N 35°30' E 139°46'0 0.0
2014-Oct-27 10:30N 35°30' E 139°46'0 0.0
2014-Oct-27 09:31N 35°30' E 139°46'0 0.0
2014-Oct-27 08:33N 35°30' E 139°46'0 0.0
2014-Oct-27 07:33N 35°30' E 139°46'0 0.0
2014-Oct-27 06:33N 35°30' E 139°46'0 0.0
2014-Oct-27 05:33N 35°30' E 139°46'0 0.0
2014-Oct-27 04:33N 35°30' E 139°46'0 0.0
2014-Oct-27 03:33N 35°30' E 139°46'3 2.6
2014-Oct-27 02:34N 35°27' E 139°47'1111.3
2014-Oct-27 01:34N 35°16' E 139°46'8 8.4
2014-Oct-27 00:34N 35°08' E 139°46'47211.0
2014-Oct-25 05:25N 33°37' E 130°24'0 0.0
2014-Oct-25 04:32N 33°37' E 130°24'0 0.0
2014-Oct-25 03:33N 33°37' E 130°24'0 0.0
2014-Oct-25 02:31N 33°37' E 130°24'0 0.0
2014-Oct-25 01:32N 33°37' E 130°24'0 0.0
2014-Oct-25 00:33N 33°37' E 130°24'0 0.0
2014-Oct-24 23:33N 33°37' E 130°24'0 0.0
2014-Oct-24 22:32N 33°37' E 130°24'0 0.0
2014-Oct-24 21:33N 33°37' E 130°24'6 5.6
2014-Oct-24 20:33N 33°39' E 130°18'1 1.3
2014-Oct-24 19:33N 33°39' E 130°16'0 0.0
2014-Oct-24 18:30N 33°39' E 130°16'0 0.0
2014-Oct-24 17:33N 33°39' E 130°16'0 0.0
2014-Oct-24 16:33N 33°39' E 130°16'0 0.0
2014-Oct-24 15:30N 33°39' E 130°16'0 0.0
2014-Oct-24 14:31N 33°39' E 130°16'0 0.0
2014-Oct-24 13:31N 33°39' E 130°16'0 0.0
2014-Oct-24 12:33N 33°39' E 130°16'0 0.0
2014-Oct-24 11:26N 33°39' E 130°16'0 0.0
2014-Oct-24 10:31N 33°39' E 130°16'0 0.0
2014-Oct-24 09:32N 33°39' E 130°16'0 0.0
2014-Oct-24 08:33N 33°39' E 130°16'0 0.0
2014-Oct-24 07:33N 33°39' E 130°16'0 0.0
2014-Oct-24 06:33N 33°39' E 130°16'0 0.0
2014-Oct-24 05:30N 33°39' E 130°16'0 0.0
2014-Oct-24 04:33N 33°39' E 130°16'0 0.0
2014-Oct-24 03:32N 33°39' E 130°16'0 0.1
2014-Oct-24 02:31N 33°39' E 130°16'0 0.0
2014-Oct-24 01:30N 33°39' E 130°16'0 0.1
2014-Oct-24 00:32N 33°39' E 130°16'8 8.1
2014-Oct-23 23:33N 33°45' E 130°10'  
2014-Oct-18 12:03N 34°27' E 125°57'0 0.0
2014-Oct-18 11:27N 34°27' E 125°57'  
Track history (hours):
 
Tides and Currents Weather Stations Pressure Air Temp Water Temp Dewpoint Dewpoint Depression Visibility Wind Speed Wind Dir Waves Ship Positions

Hyundai No.107

Last reported at 2014-Oct-27 13:31 UTC. Time now 2014-Oct-30 22:52 UTC.
Position N 35°12' E 139°46'.

Length 184 m; draft 7.5 m.

Type: Cargo ship. MMSI: 636011980.

Date/timePositionNaut miles runAvg speedWind from/ knotsBaromVisibWave heightAir tempDewpointWater temp
2014-Oct-27 13:31N 35°12' E 139°46'1212.1
2014-Oct-27 12:34N 35°23' E 139°42'7 6.8
2014-Oct-27 11:30N 35°30' E 139°46'0 0.0
2014-Oct-27 10:30N 35°30' E 139°46'0 0.0
2014-Oct-27 09:31N 35°30' E 139°46'0 0.0
2014-Oct-27 08:33N 35°30' E 139°46'0 0.0
2014-Oct-27 07:33N 35°30' E 139°46'0 0.0
2014-Oct-27 06:33N 35°30' E 139°46'0 0.0
2014-Oct-27 05:33N 35°30' E 139°46'0 0.0
2014-Oct-27 04:33N 35°30' E 139°46'0 0.0
2014-Oct-27 03:33N 35°30' E 139°46'3 2.6
2014-Oct-27 02:34N 35°27' E 139°47'1111.3
2014-Oct-27 01:34N 35°16' E 139°46'8 8.4
2014-Oct-27 00:34N 35°08' E 139°46'47211.0
2014-Oct-25 05:25N 33°37' E 130°24'0 0.0
2014-Oct-25 04:32N 33°37' E 130°24'0 0.0
2014-Oct-25 03:33N 33°37' E 130°24'0 0.0
2014-Oct-25 02:31N 33°37' E 130°24'0 0.0
2014-Oct-25 01:32N 33°37' E 130°24'0 0.0
2014-Oct-25 00:33N 33°37' E 130°24'0 0.0
2014-Oct-24 23:33N 33°37' E 130°24'0 0.0
2014-Oct-24 22:32N 33°37' E 130°24'0 0.0
2014-Oct-24 21:33N 33°37' E 130°24'6 5.6
2014-Oct-24 20:33N 33°39' E 130°18'1 1.3
2014-Oct-24 19:33N 33°39' E 130°16'0 0.0
2014-Oct-24 18:30N 33°39' E 130°16'0 0.0
2014-Oct-24 17:33N 33°39' E 130°16'0 0.0
2014-Oct-24 16:33N 33°39' E 130°16'0 0.0
2014-Oct-24 15:30N 33°39' E 130°16'0 0.0
2014-Oct-24 14:31N 33°39' E 130°16'0 0.0
2014-Oct-24 13:31N 33°39' E 130°16'0 0.0
2014-Oct-24 12:33N 33°39' E 130°16'0 0.0
2014-Oct-24 11:26N 33°39' E 130°16'0 0.0
2014-Oct-24 10:31N 33°39' E 130°16'0 0.0
2014-Oct-24 09:32N 33°39' E 130°16'0 0.0
2014-Oct-24 08:33N 33°39' E 130°16'0 0.0
2014-Oct-24 07:33N 33°39' E 130°16'0 0.0
2014-Oct-24 06:33N 33°39' E 130°16'0 0.0
2014-Oct-24 05:30N 33°39' E 130°16'0 0.0
2014-Oct-24 04:33N 33°39' E 130°16'0 0.0
2014-Oct-24 03:32N 33°39' E 130°16'0 0.1
2014-Oct-24 02:31N 33°39' E 130°16'0 0.0
2014-Oct-24 01:30N 33°39' E 130°16'0 0.1
2014-Oct-24 00:32N 33°39' E 130°16'8 8.1
2014-Oct-23 23:33N 33°45' E 130°10'  
2014-Oct-18 12:03N 34°27' E 125°57'0 0.0
2014-Oct-18 11:27N 34°27' E 125°57'  

Dump ship's entire track history